Meta, Kentucky
Current Conditions -  °F | °C
As of 11:55 AM on Monday 22 Dec 2014 (Local Time) from KPBX Reporting Station
Overcast Overcast  
Wind Chill: 47°   Ceiling: 4300
Heat Index: 47°   Visibility: 10mi
Dew Point: 37°   Wind: 3mph
Humidity: 70%   Direction: 70°ENE
Pressure: 29.97"   Gusts: NA
Location:  37.5348°N, 82.513°W
Report Text: KPBX 221655Z AUTO 07003KT 10SM SCT036 OVC043 08/03 A2997 RMK AO2 T00810029
Loading
Personal Weather Stations






























Interactive Weather Map New forecast layout! Learn more

10-Day Weather Forecast

Advertisements
Track Severe Weather on mobile